VE-0171 weather

Raulera Heliport
Anzoategui, Venezuela

Public forecast

Using degrees Celsius for public forecast. Weather courtesy of forecast.io.

Closest aviation weather report (METAR) to Raulera Heliport

Report is more than 6 hours old.

Closest report is Cumaná (Antonio José de Sucre) Airport, 25.6 nm (47.4 km) N. Retrieved 2019/06/24 18:04 UTC (7 months ago):

SVCU 241804Z 10025KT 9999 CB/NE

Closest aviation forecast (TAF) to Raulera Heliport

Closest forecast is General José Antonio Anzoategui International Airport, 38.5 nm (71.2 km) W. Retrieved 2020/01/23 12:03 UTC (4 hours ago):

TAF TAF SVBC 231000Z 2312/2412 02015KT 9999 FEW010 TX31/18Z TN24/09Z BECMG 2312/2316 00000KT FEW016